Meteo Giornale » Osservazioni meteo Indonesia » Syamsudin Noor
ore: 15:30 - Osservazioni Meteo Syamsudin Noor
Lat. 3° 27' S Lon. 114° 46' E Alt. 20 metri s.l.m.
35 °C
Poco Nuvoloso
Temp. 24 Ore
21 °C
35 °C
Est/Sud-Est
18.5 Km/h
Dew point 17 °C
Umidità 34 %
Visibilità 10 Km
Il sole sorge alle ore 06:19
Il sole tramonta alle ore 18:22
| Data e Ora | Cielo e Fenomeni | T °C | DP °C | Um. % | Pres. hPa | Vis. km | Vento km/h | |
|---|---|---|---|---|---|---|---|---|
| Oggi h: 15:30 | Poco Nuvoloso | 35 | 17 | 34 | 1009 | 10 | E/SE 18.5 | |
| Oggi h: 15:00 | Poco Nuvoloso | 35 | 17 | 34 | 1009 | 10 | E/SE 18.5 | |
| Oggi h: 14:30 | Poco Nuvoloso | 35 | 18 | 36 | 1010 | 10 | E/SE 18.5 | |
| Oggi h: 14:00 | Poco Nuvoloso | 35 | 17 | 34 | 1010 | 10 | E/SE 18.5 | |
| Oggi h: 13:30 | Nuvoloso | 35 | 17 | 34 | 1011 | 10 | SE 11.1 | |
| Oggi h: 13:00 | Nuvoloso | 35 | 18 | 36 | 1011 | 10 | SE 14.8 | |
| Oggi h: 12:30 | Nuvoloso | 35 | 18 | 36 | 1011 | 10 | SE 18.5 | |
| Oggi h: 12:00 | Poco Nuvoloso | 35 | 19 | 39 | 1012 | 10 | E 16.7 | |
| Oggi h: 11:30 | Poco Nuvoloso | 34 | 19 | 41 | 1012 | 10 | E/SE 18.5 | |
| Oggi h: 11:00 | Poco Nuvoloso | 34 | 18 | 38 | 1013 | 10 | E 18.5 | |
| Oggi h: 10:30 | Poco Nuvoloso | 33 | 18 | 41 | 1013 | 10 | E 18.5 | |
| Oggi h: 10:00 | Poco Nuvoloso | 32 | 20 | 49 | 1014 | 10 | E 20.3 | |
| Oggi h: 09:30 | Sereno | 31 | 20 | 52 | 1014 | 10 | S/SE 22.2 | |
| Oggi h: 09:00 | Sereno | 30 | 20 | 55 | 1014 | 10 | SE 18.5 | |
| Oggi h: 08:30 | Sereno | 29 | 21 | 62 | 1014 | 10 | E/SE 14.8 | |
| Oggi h: 08:00 | Sereno | 25 | 22 | 83 | 1014 | 6 | SE 9.3 | |
| Oggi h: 07:30 | Caligine | 23 | 21 | 88 | 1013 | 3 | E/SE 9.3 | |
| Oggi h: 07:00 | Caligine | 22 | 20 | 88 | 1013 | 0.8 | SE 11.1 | |
| Oggi h: 06:30 | Caligine | 22 | 20 | 88 | 1013 | 0.8 | N 0 | |
| Oggi h: 06:00 | Caligine | 22 | 20 | 88 | 1012 | 2 | N 5.5 | |
| Oggi h: 05:30 | Caligine | 21 | 20 | 94 | 1012 | 2 | N 3.7 | |
| Oggi h: 05:00 | Foschia | 23 | 22 | 94 | 1012 | 2 | N 3.7 | |
| Oggi h: 04:30 | Foschia | 23 | 22 | 94 | 1012 | 2 | N 3.7 | |
| Oggi h: 04:00 | Foschia | 23 | 22 | 94 | 1012 | 2 | N 3.7 | |
| Oggi h: 03:30 | Foschia | 23 | 22 | 94 | 1012 | 2 | N 1.8 | |
| Oggi h: 03:00 | Foschia | 23 | 22 | 94 | 1012 | 2 | N 1.8 | |
| Oggi h: 02:30 | Foschia | 23 | 22 | 94 | 1012 | 2 | N 3.7 | |
| Oggi h: 02:00 | Foschia | 24 | 22 | 88 | 1012 | 4 | N 3.7 | |
| Oggi h: 01:30 | Foschia | 24 | 22 | 88 | 1012 | 4 | N 1.8 | |
| Oggi h: 01:00 | Poco Nuvoloso | 25 | 22 | 83 | 1012 | 8 | N 3.7 | |
| Oggi h: 00:30 | Nuvoloso | 26 | 22 | 78 | 1012 | 10 | N 5.5 | |
| Oggi h: 00:00 | Nuvoloso | 25 | 23 | 88 | 1013 | 5 | N 5.5 | |
| Ieri h: 23:30 | Poco Nuvoloso | 25 | 23 | 88 | 1013 | 9 | N 5.5 | |
| Ieri h: 23:00 | Sereno | 26 | 21 | 73 | 1013 | 9 | N 3.7 | |
| Ieri h: 22:30 | Sereno | 26 | 22 | 78 | 1013 | 8 | N 3.7 | |
| Ieri h: 22:00 | Sereno | 26 | 21 | 73 | 1013 | 9 | N 3.7 | |
| Ieri h: 21:30 | Sereno | 26 | 22 | 78 | 1012 | 8 | N 3.7 | |
| Ieri h: 21:00 | Sereno | 27 | 22 | 74 | 1012 | 6 | N 5.5 | |
| Ieri h: 20:30 | Sereno | 27 | 22 | 74 | 1012 | 7 | N 5.5 | |
| Ieri h: 20:00 | Sereno | 28 | 22 | 69 | 1012 | 8 | S 13 | |
| Ieri h: 19:30 | Poco Nuvoloso | 28 | 22 | 69 | 1011 | 10 | S 13 | |
| Ieri h: 19:00 | Poco Nuvoloso | 29 | 22 | 66 | 1011 | 10 | S/SE 9.3 | |
| Ieri h: 18:30 | Poco Nuvoloso | 29 | 22 | 66 | 1010 | 10 | S 18.5 | |
| Ieri h: 18:00 | Poco Nuvoloso | 30 | 22 | 62 | 1010 | 10 | S 18.5 | |
| Ieri h: 17:30 | Poco Nuvoloso | 32 | 22 | 55 | 1010 | 10 | S 18.5 | |
| Ieri h: 17:00 | Poco Nuvoloso | 33 | 22 | 52 | 1009 | 10 | S 18.5 | |
| Ieri h: 16:30 | Nuvoloso | 33 | 22 | 52 | 1009 | 10 | S 22.2 | |
| Ieri h: 16:00 | Poco Nuvoloso | 35 | 22 | 47 | 1009 | 10 | S 22.2 | |



